< Typhoon 199409 1994 Season Typhoon 199411 >
Typhoon 199410 (AMY)
General InformationDetailed Track InformationTrack Information on Google MapsList of All Images || Disaster Info.ResourceGoogle EarthGE AnimationAtom FeedGeoJSON
Detalied Best Track Wind (Time Zone = UTC)
Year Month Day Hour Lat. Long. Wind (kt) Gust (kt) Direc. of Major Storm Axis Radius of Major Storm Axis (nm) Radius of Minor Storm Axis (nm) Direc. of Major Gale Axis Radius of Major Gale Axis (nm) Radius of Minor Gale Axis (nm) Image
1994 7 25 00 22.0 107.0 0 0 - - - - - - Image
1994 7 25 06 22.0 107.0 0 0 - - - - - - Image
1994 7 25 12 22.0 107.0 0 0 - - - - - - Image
1994 7 25 18 22.0 107.0 0 0 - - - - - - Image
1994 7 26 00 22.0 107.0 0 0 - - - - - - Image
1994 7 26 06 22.0 107.0 0 0 - - - - - - Image
1994 7 26 12 21.0 107.0 0 0 - - - - - - Image
1994 7 26 18 21.0 107.5 0 0 - - - - - - Image
1994 7 27 00 21.0 108.0 0 0 - - - - - - Image
1994 7 27 06 20.5 108.0 0 0 - - - - - - Image
1994 7 27 12 20.5 108.5 0 0 - - - - - - Image
1994 7 27 18 21.0 109.0 0 0 - - - - - - Image
1994 7 28 00 21.0 109.2 0 0 - - - - - - Image
1994 7 28 06 20.8 109.1 0 0 - - - - - - Image
1994 7 28 12 20.6 109.0 0 0 - - - - - - Image
1994 7 28 18 20.4 108.7 0 0 - - - - - - Image
1994 7 29 00 20.0 108.3 35 0 - - - symmetric 50 50 Image
1994 7 29 06 18.9 108.2 45 0 - - - symmetric 90 90 Image
1994 7 29 12 18.8 108.8 40 0 - - - symmetric 80 80 Image
1994 7 29 18 18.8 109.0 40 0 - - - symmetric 80 80 Image
1994 7 30 00 19.3 107.8 35 0 - - - symmetric 50 50 Image
1994 7 30 06 19.6 107.4 35 0 - - - symmetric 50 50 Image
1994 7 30 12 20.0 106.8 35 0 - - - symmetric 50 50 Image
1994 7 30 18 19.5 105.0 35 0 - - - symmetric 50 50 Image
1994 7 31 00 19.0 103.5 0 0 - - - - - - Image
1994 7 31 06 19.0 102.5 0 0 - - - - - - Image
1994 7 31 12 19.0 101.0 0 0 - - - - - - Image
1994 7 31 18 19.0 100.0 0 0 - - - - - - Image
1994 8 1 00 19.0 99.0 0 0 - - - - - - Image
1994 8 1 06 19.0 98.4 0 0 - - - - - - Image
Japan Meteorological Agency Best Track Data | Correction Date : 1995-01-30
< Typhoon 199409 1994 Season Typhoon 199411 >

Help